Daihatsumaru — JD2764 — position and weather

sailwx.info

Track history (hours):
 
Tides and Currents Weather Stations Pressure Air Temp Water Temp Dewpoint Dewpoint Depression Visibility Wind Speed Wind Dir Waves Ship Positions

Daihatsumaru

Last reported at 2015-Aug-29 03:09 UTC. Time now 2015-Aug-29 21:04 UTC.
Position N 34°37' E 135°15'.

Length 106 m; draft 4.5 m.

Type: Cargo ship. MMSI: 431000701.

Date/timePositionNaut miles runAvg speedWind from/ knotsBaromVisibWave heightAir tempDewpointWater temp
2015-Aug-29 03:09N 34°37' E 135°15'  
2015-Aug-26 04:33N 34°37' E 134°58'1313.2
2015-Aug-26 03:33N 34°36' E 135°13'10 9.2
2015-Aug-26 02:31N 34°41' E 135°23'0 0.0
2015-Aug-26 01:31N 34°41' E 135°23'0 0.0
2015-Aug-26 00:31N 34°41' E 135°23'0 0.0
2015-Aug-25 23:25N 34°41' E 135°23'3 3.6
2015-Aug-25 22:33N 34°40' E 135°20'1 1.1
2015-Aug-25 21:32N 34°39' E 135°19'0 0.0
2015-Aug-25 20:32N 34°39' E 135°19'0 0.0
2015-Aug-25 19:26N 34°39' E 135°19'0 0.0
2015-Aug-25 18:32N 34°39' E 135°19'0 0.0
2015-Aug-25 17:32N 34°39' E 135°19'0 0.0
2015-Aug-25 16:26N 34°39' E 135°19'0 0.0
2015-Aug-25 15:32N 34°39' E 135°19'0 0.0
2015-Aug-25 14:32N 34°39' E 135°19'0 0.0
2015-Aug-25 13:32N 34°39' E 135°19'0 0.0
2015-Aug-25 12:32N 34°39' E 135°19'0 0.0
2015-Aug-25 11:26N 34°39' E 135°19'0 0.0
2015-Aug-25 10:32N 34°39' E 135°19'0 0.0
2015-Aug-25 09:26N 34°39' E 135°19'0 0.0
2015-Aug-25 08:32N 34°39' E 135°19'0 0.0
2015-Aug-25 07:14N 34°39' E 135°19'0 0.0
2015-Aug-25 06:32N 34°39' E 135°19'0 0.0
2015-Aug-25 04:32N 34°39' E 135°19'0 0.0
2015-Aug-25 03:20N 34°39' E 135°19'0 0.0
2015-Aug-25 02:14N 34°39' E 135°19'0 0.0
2015-Aug-25 01:32N 34°39' E 135°19'0 0.0
2015-Aug-25 00:32N 34°39' E 135°19'0 0.0
2015-Aug-24 23:32N 34°39' E 135°19'0 0.0
2015-Aug-24 22:32N 34°39' E 135°19'0 0.0
2015-Aug-24 21:32N 34°39' E 135°19'4 4.0
2015-Aug-24 20:33N 34°36' E 135°16'1313.2
2015-Aug-24 19:33N 34°37' E 134°60'  
2015-Aug-22 05:24N 34°35' E 134°51'1314.9
2015-Aug-22 04:33N 34°36' E 135°06'1414.1
2015-Aug-22 03:33N 34°41' E 135°22'1 1.0
2015-Aug-22 02:30N 34°41' E 135°23'0 0.0
2015-Aug-22 01:30N 34°41' E 135°23'0 0.0
2015-Aug-22 00:30N 34°41' E 135°23'0 0.0
2015-Aug-21 23:30N 34°41' E 135°23'1 1.5
2015-Aug-21 22:33N 34°40' E 135°22'1 1.1
2015-Aug-21 21:29N 34°40' E 135°21'0 0.0
2015-Aug-21 20:23N 34°40' E 135°21'0 0.1
2015-Aug-21 19:33N 34°40' E 135°20'1413.9
2015-Aug-21 18:33N 34°35' E 135°04'9 0.3
2015-Aug-20 05:11N 34°35' E 134°53'914.4
2015-Aug-20 04:33N 34°36' E 135°04'1514.6
2015-Aug-20 03:33N 34°40' E 135°21'2 2.1
2015-Aug-20 02:26N 34°41' E 135°23'0 0.0
2015-Aug-20 01:32N 34°41' E 135°23'0 0.0
2015-Aug-20 00:32N 34°41' E 135°23'0 0.0
2015-Aug-19 23:26N 34°41' E 135°23'1 1.4
2015-Aug-19 22:33N 34°41' E 135°22'1 1.2
2015-Aug-19 21:31N 34°40' E 135°21'0 0.0
2015-Aug-19 20:31N 34°40' E 135°21'0 0.0
2015-Aug-19 19:33N 34°40' E 135°21'1312.6
2015-Aug-19 18:34N 34°35' E 135°07'  
Track history (hours):
 
Tides and Currents Weather Stations Pressure Air Temp Water Temp Dewpoint Dewpoint Depression Visibility Wind Speed Wind Dir Waves Ship Positions

Daihatsumaru

Last reported at 2015-Aug-29 03:09 UTC. Time now 2015-Aug-29 21:04 UTC.
Position N 34°37' E 135°15'.

Length 106 m; draft 4.5 m.

Type: Cargo ship. MMSI: 431000701.

Date/timePositionNaut miles runAvg speedWind from/ knotsBaromVisibWave heightAir tempDewpointWater temp
2015-Aug-29 03:09N 34°37' E 135°15'  
2015-Aug-26 04:33N 34°37' E 134°58'1313.2
2015-Aug-26 03:33N 34°36' E 135°13'10 9.2
2015-Aug-26 02:31N 34°41' E 135°23'0 0.0
2015-Aug-26 01:31N 34°41' E 135°23'0 0.0
2015-Aug-26 00:31N 34°41' E 135°23'0 0.0
2015-Aug-25 23:25N 34°41' E 135°23'3 3.6
2015-Aug-25 22:33N 34°40' E 135°20'1 1.1
2015-Aug-25 21:32N 34°39' E 135°19'0 0.0
2015-Aug-25 20:32N 34°39' E 135°19'0 0.0
2015-Aug-25 19:26N 34°39' E 135°19'0 0.0
2015-Aug-25 18:32N 34°39' E 135°19'0 0.0
2015-Aug-25 17:32N 34°39' E 135°19'0 0.0
2015-Aug-25 16:26N 34°39' E 135°19'0 0.0
2015-Aug-25 15:32N 34°39' E 135°19'0 0.0
2015-Aug-25 14:32N 34°39' E 135°19'0 0.0
2015-Aug-25 13:32N 34°39' E 135°19'0 0.0
2015-Aug-25 12:32N 34°39' E 135°19'0 0.0
2015-Aug-25 11:26N 34°39' E 135°19'0 0.0
2015-Aug-25 10:32N 34°39' E 135°19'0 0.0
2015-Aug-25 09:26N 34°39' E 135°19'0 0.0
2015-Aug-25 08:32N 34°39' E 135°19'0 0.0
2015-Aug-25 07:14N 34°39' E 135°19'0 0.0
2015-Aug-25 06:32N 34°39' E 135°19'0 0.0
2015-Aug-25 04:32N 34°39' E 135°19'0 0.0
2015-Aug-25 03:20N 34°39' E 135°19'0 0.0
2015-Aug-25 02:14N 34°39' E 135°19'0 0.0
2015-Aug-25 01:32N 34°39' E 135°19'0 0.0
2015-Aug-25 00:32N 34°39' E 135°19'0 0.0
2015-Aug-24 23:32N 34°39' E 135°19'0 0.0
2015-Aug-24 22:32N 34°39' E 135°19'0 0.0
2015-Aug-24 21:32N 34°39' E 135°19'4 4.0
2015-Aug-24 20:33N 34°36' E 135°16'1313.2
2015-Aug-24 19:33N 34°37' E 134°60'  
2015-Aug-22 05:24N 34°35' E 134°51'1314.9
2015-Aug-22 04:33N 34°36' E 135°06'1414.1
2015-Aug-22 03:33N 34°41' E 135°22'1 1.0
2015-Aug-22 02:30N 34°41' E 135°23'0 0.0
2015-Aug-22 01:30N 34°41' E 135°23'0 0.0
2015-Aug-22 00:30N 34°41' E 135°23'0 0.0
2015-Aug-21 23:30N 34°41' E 135°23'1 1.5
2015-Aug-21 22:33N 34°40' E 135°22'1 1.1
2015-Aug-21 21:29N 34°40' E 135°21'0 0.0
2015-Aug-21 20:23N 34°40' E 135°21'0 0.1
2015-Aug-21 19:33N 34°40' E 135°20'1413.9
2015-Aug-21 18:33N 34°35' E 135°04'9 0.3
2015-Aug-20 05:11N 34°35' E 134°53'914.4
2015-Aug-20 04:33N 34°36' E 135°04'1514.6
2015-Aug-20 03:33N 34°40' E 135°21'2 2.1
2015-Aug-20 02:26N 34°41' E 135°23'0 0.0
2015-Aug-20 01:32N 34°41' E 135°23'0 0.0
2015-Aug-20 00:32N 34°41' E 135°23'0 0.0
2015-Aug-19 23:26N 34°41' E 135°23'1 1.4
2015-Aug-19 22:33N 34°41' E 135°22'1 1.2
2015-Aug-19 21:31N 34°40' E 135°21'0 0.0
2015-Aug-19 20:31N 34°40' E 135°21'0 0.0
2015-Aug-19 19:33N 34°40' E 135°21'1312.6
2015-Aug-19 18:34N 34°35' E 135°07'  

Dump ship's entire track history